Date,TemperatureHighF,TemperatureAvgF,TemperatureLowF,DewpointHighF,DewpointAvgF,DewpointLowF,HumidityHigh,HumidityAvg,HumidityLow,PressureMaxIn,PressureMinIn,WindSpeedMaxMPH,WindSpeedAvgMPH,GustSpeedMaxMPH,PrecipitationSumIn
2013-1-1,32,20,4,28,16,0,89,83,74,30.21,29.99,13,5,16,0.00
2013-1-2,23,14,3,19,11,1,93,85,79,30.28,30.18,9,3,15,0.00
2013-1-10,36,31,22,27,24,20,93,77,66,30.75,30.57,12,4,15,0.00
2013-1-11,38,33,21,36,28,19,94,82,62,30.71,30.25,11,5,18,0.06
2013-1-12,44,40,37,43,39,36,99,97,94,30.30,30.24,7,2,17,0.01
2013-1-13,51,46,40,50,45,40,99,97,92,30.28,30.04,10,4,15,0.00
2013-1-14,50,45,40,49,44,38,98,96,93,30.29,29.99,14,4,18,0.00
2013-2-12,32,32,32,26,26,26,79,78,78,30.04,30.04,11,10,11,0.00
2013-2-13,29,29,28,24,23,22,83,80,77,30.08,30.06,3,2,28,0.00
2013-2-14,24,21,19,21,19,16,92,90,85,30.08,30.00,0,0,5,0.00
2013-3-14,26,21,15,19,13,10,86,70,54,30.18,30.05,16,10,30,0.00
2013-3-15,34,27,18,29,21,12,92,78,61,30.20,29.88,10,5,19,0.00
2013-3-16,29,24,18,21,16,12,81,72,56,30.16,30.00,11,3,11,0.00
2013-3-17,27,21,13,18,12,9,90,71,52,30.56,30.15,12,5,22,0.00
2013-3-18,36,22,9,26,13,5,94,73,27,30.61,30.11,12,4,19,0.00
2013-3-19,41,31,24,35,28,19,97,90,72,30.11,29.85,12,4,18,0.16
2013-3-20,29,24,16,25,19,11,92,80,66,30.02,29.97,11,4,17,0.01
2013-3-21,29,20,8,17,12,6,93,73,50,30.02,29.90,8,2,15,0.00
2013-3-22,29,25,18,25,21,14,92,85,74,30.06,29.90,12,5,18,0.00
2013-3-23,34,30,27,26,23,20,93,77,61,30.15,30.02,12,7,22,0.01
2013-3-24,36,31,27,24,23,21,84,72,59,30.14,29.94,8,4,11,0.01
2013-3-25,40,32,26,26,23,22,84,70,55,29.94,29.73,9,2,10,0.00
2013-4-10,46,44,44,44,44,44,98,98,96,30.15,30.08,7,3,8,0.11
2013-4-11,41,37,34,40,35,30,97,90,81,30.28,30.10,11,6,13,0.01
2013-4-24,69,54,41,56,46,37,91,76,51,30.20,29.83,13,6,17,0.16
2013-4-25,57,44,36,38,31,26,86,62,32,30.45,30.07,13,5,19,0.00
2013-4-26,49,42,34,36,33,30,87,71,49,30.64,30.44,9,3,16,0.00
2013-4-27,63,46,29,40,33,27,94,65,34,30.65,30.47,8,2,9,0.00
2013-4-28,71,55,34,42,37,32,94,56,27,30.47,30.24,9,3,15,0.00
2013-4-29,56,52,47,48,46,41,90,80,59,30.32,30.25,12,6,23,0.08
2013-4-30,65,56,50,51,49,46,90,76,58,30.43,30.32,9,5,14,0.00
2013-5-1,78,60,42,47,38,29,88,49,24,30.59,30.44,8,2,11,0.00
2013-5-2,70,54,46,44,39,34,76,57,32,30.61,30.55,5,1,5,0.00
2013-5-9,70,61,52,55,53,50,95,77,56,30.12,30.04,5,1,6,0.01
2013-5-10,71,59,46,59,53,46,99,81,51,30.16,29.97,9,3,12,0.07
2013-5-11,63,56,48,59,54,46,95,91,82,29.97,29.83,11,5,13,0.08
2013-5-12,52,46,37,47,36,24,97,71,39,30.08,29.85,13,5,22,0.01
2013-5-13,44,39,33,34,30,27,91,71,57,30.31,30.08,10,5,15,0.00
2013-5-14,53,42,32,33,29,22,94,63,32,30.35,30.22,8,3,11,0.00
2013-5-15,72,51,32,57,42,29,92,72,53,30.23,29.76,13,4,19,0.05
2013-5-16,73,59,41,47,41,35,94,56,31,30.09,29.90,11,5,20,0.00
2013-5-17,63,52,40,44,41,36,88,67,46,30.42,30.09,8,3,12,0.00
2013-5-18,69,54,36,48,43,35,96,68,41,30.48,30.37,7,2,9,0.00
2013-5-19,61,57,53,56,53,48,91,85,75,30.40,30.26,9,5,13,0.00
2013-5-20,85,68,57,66,60,54,96,79,51,30.27,30.04,7,2,9,0.00
2013-5-21,86,71,61,70,64,58,96,80,54,30.08,29.89,14,2,25,0.72
2013-5-22,81,70,62,70,65,60,99,87,58,29.97,29.87,10,2,13,0.11
2013-5-23,73,65,60,64,61,58,98,86,65,29.94,29.85,9,3,12,0.13
2013-5-24,60,43,38,59,42,37,98,94,91,30.29,29.86,13,7,21,0.13
2013-5-25,48,44,41,40,38,35,92,82,64,30.31,30.24,17,8,24,0.06
2013-5-26,56,48,38,40,37,34,91,70,45,30.37,30.19,14,6,19,0.00
2013-5-27,65,50,33,42,36,32,97,65,30,30.44,30.34,11,3,16,0.01
2013-5-28,62,51,39,54,46,37,96,85,54,30.39,30.24,8,3,13,0.31
2013-5-29,80,65,55,68,62,54,99,90,62,30.25,30.08,11,3,16,0.48
2013-5-30,83,70,57,70,64,57,100,83,55,30.27,30.19,7,2,12,0.00
2013-5-31,87,75,59,70,64,59,99,72,43,30.26,30.07,7,2,11,0.01
2013-6-1,86,75,61,68,65,60,97,72,52,30.10,29.94,10,4,14,0.00
2013-6-2,77,70,61,68,65,56,93,82,68,29.96,29.83,12,3,15,0.16
2013-6-3,61,55,47,57,48,40,92,78,50,30.15,29.96,10,4,12,0.00
2013-6-4,63,53,44,44,41,35,88,65,37,30.34,30.15,13,5,19,0.00
2013-6-5,69,56,42,49,44,40,93,68,39,30.40,30.27,5,1,8,0.00
2013-6-6,60,54,47,58,50,46,95,87,64,30.28,30.09,7,3,12,0.22
2013-6-7,61,58,55,60,57,53,98,96,93,30.09,29.94,5,2,11,0.14
2013-6-8,62,57,54,59,55,53,99,95,86,30.24,29.92,7,2,10,0.00
2013-6-9,73,60,48,58,54,48,99,82,57,30.36,30.24,9,2,10,0.00
2013-6-10,63,58,51,61,57,50,99,95,81,30.35,29.94,6,2,10,0.37
2013-6-11,66,61,56,64,60,54,99,95,91,29.94,29.77,9,4,15,0.16
2013-6-12,70,60,53,56,53,52,95,81,56,30.07,29.90,10,5,14,0.00
2013-6-13,57,55,52,56,54,51,97,95,92,29.99,29.73,9,3,13,0.58
2013-7-1,70,68,66,69,67,66,99,97,94,30.14,30.06,6,2,0,0.91
2013-7-2,82,73,66,73,70,66,100,89,70,30.24,30.14,6,2,0,0.01
2013-7-3,85,76,69,72,70,68,97,82,61,30.31,30.23,7,3,0,0.00
2013-7-4,84,75,69,75,71,67,98,87,64,30.32,30.23,7,2,0,0.24
2013-7-5,86,75,68,74,70,68,100,87,61,30.29,30.18,8,2,13,0.63
2013-7-6,82,73,66,71,67,63,100,83,55,30.28,30.17,6,2,12,0.01
2013-7-7,84,75,68,74,70,67,99,86,63,30.21,30.05,9,2,12,0.49
2013-7-8,80,72,66,70,67,65,98,88,66,30.19,30.10,8,2,12,0.01
2013-7-9,85,72,65,73,68,64,100,87,55,30.22,30.07,9,2,13,0.08
2013-7-10,81,73,68,73,70,65,98,90,75,30.09,29.89,7,3,13,0.05
2013-7-11,69,67,66,66,64,61,97,89,82,30.02,29.92,4,1,12,0.00
2013-7-12,76,74,70,62,61,60,76,64,58,30.27,30.24,5,4,0,0.00
2013-7-13,76,75,74,68,68,68,80,78,77,30.38,30.38,4,3,0,0.00
2013-7-14,84,83,82,71,71,71,68,66,65,30.43,30.42,1,0,0,0.00
2013-7-15,85,82,75,72,70,65,74,67,61,30.40,30.33,8,5,12,0.00
2013-7-16,86,77,62,72,68,62,98,75,50,30.41,30.33,7,2,11,0.00
2013-7-17,89,77,63,74,69,63,99,79,54,30.38,30.19,5,1,7,0.00
2013-7-18,77,74,72,73,72,70,96,92,88,30.20,30.17,5,1,6,0.00
2013-7-23,71,68,66,68,67,66,99,95,91,29.82,29.79,6,2,7,0.25
2013-7-29,55,55,55,55,55,55,99,99,99,30.18,30.18,0,0,0,0.00
2013-8-2,74,66,54,65,59,54,100,79,56,30.05,30.00,6,2,11,0.01
2013-8-3,73,65,57,60,57,53,97,78,53,30.07,29.96,8,3,16,0.00
2013-8-4,67,61,55,59,55,52,96,81,60,30.16,30.04,12,4,17,0.00
2013-8-5,69,60,48,55,51,46,96,74,50,30.26,30.16,9,3,14,0.00
2013-8-6,74,61,46,61,54,45,99,80,51,30.27,30.22,7,2,11,0.01
2013-8-7,71,66,59,66,62,56,93,87,78,30.25,30.12,8,4,16,0.00
2013-8-8,82,72,66,72,68,64,96,85,65,30.15,30.05,8,3,14,0.04
2013-8-9,75,69,62,72,68,61,99,94,85,30.06,29.95,7,2,10,0.21
2013-8-10,69,63,51,61,55,49,99,79,51,30.26,30.05,10,3,19,0.01
2013-8-11,72,60,46,58,52,46,99,80,55,30.30,30.20,7,1,12,0.00
2013-8-12,76,63,52,61,56,52,98,81,57,30.23,30.10,5,1,10,0.00
2013-8-13,69,69,69,66,66,66,88,88,88,29.89,29.89,1,1,1,0.00
2013-8-15,65,54,46,54,50,45,98,86,62,30.30,30.24,8,2,11,0.00
2013-8-23,56,56,56,55,55,55,96,96,96,30.16,30.16,0,0,0,0.00
2013-9-13,61,54,48,59,52,45,97,93,86,30.11,29.82,10,6,16,0.07
2013-9-14,47,46,46,46,45,44,97,95,91,30.19,30.11,8,4,11,0.00
2013-10-10,63,51,38,51,44,37,98,79,48,30.49,30.36,6,1,7,0.01
2013-10-11,68,54,43,50,46,41,94,76,38,30.36,30.27,7,1,9,0.00
2013-10-12,74,54,36,52,46,35,98,76,41,30.46,30.32,6,1,10,0.00
2013-10-13,67,58,45,53,49,43,96,76,57,30.52,30.43,8,2,11,0.00
2013-10-14,60,55,52,55,52,48,98,90,69,30.49,30.43,5,2,8,0.02
2013-10-15,67,57,50,57,53,49,99,86,64,30.46,30.22,6,1,10,0.00
2013-10-16,62,58,54,54,51,46,89,78,70,30.22,29.98,8,4,11,0.00
2013-10-17,64,56,48,55,50,46,98,81,55,30.06,29.81,11,3,13,0.28
2013-10-18,57,51,42,50,45,39,98,79,54,30.12,29.83,11,4,16,0.00
2013-10-19,61,49,40,48,43,38,96,80,47,30.11,29.84,12,2,22,0.07
2013-10-20,52,46,36,42,38,34,95,76,59,30.20,29.88,12,4,18,0.00
2013-10-21,62,52,39,42,40,37,94,66,42,30.25,30.03,10,4,13,0.00
2013-10-22,53,46,34,44,37,32,92,74,57,30.03,29.91,10,3,13,0.00
2013-10-23,46,39,34,37,34,32,94,84,63,30.00,29.84,8,2,11,0.01
2013-10-24,46,38,29,35,31,28,96,78,54,30.14,29.96,11,5,22,0.02
2013-10-25,43,38,32,37,34,31,96,87,70,30.35,30.14,8,3,12,0.01
2013-10-26,44,40,32,36,31,28,97,73,56,30.34,30.02,10,5,17,0.00
2013-10-27,47,41,36,37,34,30,90,78,54,30.26,30.00,12,4,17,0.00
2013-10-28,48,39,27,39,32,25,92,77,62,30.56,30.25,11,4,16,0.00
2013-10-29,42,32,21,28,22,16,95,72,35,30.67,30.53,4,1,8,0.00
2013-10-30,56,40,32,42,34,24,95,82,59,30.52,30.36,6,1,8,0.00
2013-10-31,58,49,33,57,48,32,98,96,93,30.38,29.74,9,4,15,0.21
2013-11-1,65,58,46,59,50,40,96,76,41,29.84,29.47,14,7,23,0.13
2013-11-2,54,45,36,45,41,34,96,87,65,30.08,29.79,12,2,13,0.00
2013-11-3,36,31,25,34,25,18,92,77,61,30.74,30.08,11,6,17,0.00
2013-11-4,43,29,18,24,20,16,94,69,38,30.89,30.74,7,1,7,0.00
2013-11-5,52,42,33,38,30,18,75,64,54,30.79,30.59,10,5,17,0.00
2013-11-6,59,51,44,49,44,38,84,77,63,30.59,30.06,11,6,17,0.00
2013-11-7,56,51,42,51,48,39,95,89,79,30.07,29.95,9,4,13,0.21
2013-11-13,32,26,19,22,19,14,85,74,63,30.61,30.35,10,3,14,0.00
2013-11-14,48,35,24,24,20,17,78,55,28,30.37,30.27,8,3,11,0.00
2013-11-15,54,41,29,29,24,19,77,51,32,30.37,30.28,7,2,8,0.00
2013-11-16,57,45,35,39,34,24,89,66,47,30.47,30.36,7,2,11,0.00
2013-11-17,57,51,44,54,48,39,95,90,79,30.36,29.69,14,7,17,0.01
2013-11-18,58,48,35,55,39,27,94,70,46,29.99,29.59,17,8,29,0.08
2013-11-19,35,32,26,30,26,19,94,79,69,30.62,29.98,14,8,23,0.00
2013-11-20,41,26,18,21,18,15,90,72,38,30.83,30.62,8,1,9,0.00
2013-11-21,42,34,22,35,26,16,84,71,61,30.80,30.51,9,3,18,0.00
2013-11-22,46,41,35,45,40,31,97,93,84,30.51,30.11,10,3,15,0.09
2013-11-23,35,28,16,31,23,13,92,81,56,30.29,30.08,15,8,21,0.00
2013-11-24,20,16,12,16,13,9,92,88,73,30.58,30.22,13,7,19,0.00
2013-11-25,21,15,13,16,13,10,93,89,81,30.64,30.57,8,2,11,0.00
2013-12-12,18,14,8,12,9,6,93,79,62,30.53,30.25,9,3,14,0.00
2013-12-13,22,17,9,19,13,6,91,84,76,30.60,30.22,11,5,18,0.00
2013-12-14,18,12,6,16,8,-1,92,85,72,30.72,30.10,7,2,11,0.00
2013-12-15,26,23,18,25,20,12,96,89,70,30.09,29.81,12,4,18,0.00
2013-12-16,20,12,-3,14,9,-6,91,85,63,30.43,29.99,14,3,17,0.00
2013-12-17,22,10,-11,20,7,-14,94,90,83,30.42,30.21,5,1,8,0.00
2013-12-18,30,22,10,24,17,8,95,83,69,30.29,30.19,11,3,18,0.00
2013-12-19,39,30,23,28,24,18,87,77,62,30.28,30.17,10,2,13,0.07
2013-12-20,45,40,32,42,36,28,98,86,68,30.25,30.04,7,1,8,0.15
2013-12-21,49,46,43,48,45,42,100,97,94,30.05,29.93,6,1,7,0.22
2013-12-22,63,53,40,57,50,39,100,89,72,30.12,29.73,14,7,19,0.02
2013-12-23,40,36,25,39,34,23,99,94,77,30.40,30.11,10,4,14,0.06
2013-12-24,25,20,12,23,17,9,94,88,80,30.60,30.35,12,4,15,0.00
2013-12-25,21,13,3,13,8,0,91,80,68,30.76,30.53,8,3,15,0.00
2013-12-26,28,23,19,24,20,13,93,87,70,30.54,30.31,9,4,15,0.02
2013-12-27,30,25,19,25,21,16,93,84,78,30.49,30.39,6,2,9,0.00
2013-12-28,42,32,18,32,27,16,96,83,67,30.38,30.19,7,2,12,0.02
2013-12-29,41,34,26,35,31,25,98,87,63,30.19,29.82,5,0,5,0.16
2013-12-30,36,19,9,35,16,6,98,86,75,30.41,29.87,14,5,17,0.04
2013-12-31,21,13,9,19,9,4,91,83,66,30.45,30.19,11,3,14,0.00
2014-1-1,20,15,12,12,9,7,90,78,58,30.59,30.44,8,4,11,0.00
2014-1-2,12,10,0,10,7,-3,92,90,87,30.52,30.11,10,4,11,0.00